Date,TemperatureHighF,TemperatureAvgF,TemperatureLowF,DewpointHighF,DewpointAvgF,DewpointLowF,HumidityHigh,HumidityAvg,HumidityLow,PressureMaxIn,PressureMinIn,WindSpeedMaxMPH,WindSpeedAvgMPH,GustSpeedMaxMPH,PrecipitationSumIn
2013-3-1,40.0,25.4,21.0,40.0,25.4,21.0,100,100,100,0.00,40.00,25,6,43,0.00
2013-3-2,41.0,33.5,22.0,31.0,12.9,-20.0,100,46,7,0.00,40.00,18,7,33,0.00
2013-3-3,33.0,27.3,23.0,33.0,27.2,23.0,100,100,77,0.00,40.00,17,7,29,0.00
2013-3-4,24.0,16.2,11.0,23.0,11.8,-18.0,100,85,22,0.00,40.00,22,11,40,0.00
2013-3-5,31.0,25.9,13.0,22.0,-14.4,-67.0,92,28,1,0.00,40.00,28,14,39,0.00
2013-3-6,32.0,27.3,23.0,32.0,27.0,23.0,100,99,81,0.00,40.00,35,23,55,0.00
2013-3-7,30.0,25.4,21.0,28.0,23.2,13.0,100,93,49,0.00,40.00,26,9,40,0.00
2013-3-8,26.0,24.0,22.0,26.0,24.0,22.0,100,100,100,0.00,40.00,21,10,26,0.00
2013-3-9,28.0,21.6,13.0,28.0,21.6,13.0,100,100,100,0.00,40.00,16,10,30,0.00
2013-3-10,37.0,22.6,14.0,25.0,14.1,-2.0,100,74,31,0.00,40.00,16,7,28,0.00
2013-3-11,29.0,25.2,22.0,29.0,22.8,7.0,100,91,50,0.00,40.00,19,10,41,0.00
2013-3-12,38.0,28.5,24.0,38.0,28.5,24.0,100,100,100,0.00,40.00,16,8,31,0.00
2013-3-13,45.0,35.9,30.0,41.0,31.5,10.0,100,86,46,0.00,40.00,15,6,24,0.00
2013-3-14,50.0,42.9,38.0,28.0,17.3,8.0,52,36,18,0.00,40.00,14,6,20,0.00
2013-3-15,47.0,42.0,36.0,35.0,18.7,6.0,88,40,25,0.00,40.00,14,6,21,0.00
2013-3-16,38.0,32.8,28.0,34.0,20.3,-6.0,100,64,19,0.00,40.00,11,7,22,0.00
2013-3-17,31.0,21.2,15.0,30.0,20.9,15.0,100,99,76,0.00,40.00,28,16,58,0.00
2013-3-18,25.0,18.6,14.0,24.0,17.9,14.0,100,98,79,0.00,40.00,22,10,41,0.00
2013-3-19,37.0,24.8,17.0,20.0,-15.1,-66.0,100,27,1,0.00,40.00,16,8,24,0.00
2013-3-20,31.0,27.4,26.0,31.0,22.5,2.0,100,85,34,0.00,40.00,28,14,47,0.00
2013-3-21,30.0,18.5,12.0,30.0,17.1,6.0,100,95,70,0.00,40.00,31,15,47,0.00
2013-3-22,17.0,9.2,4.0,17.0,9.2,4.0,100,100,100,0.00,40.00,18,7,34,0.00
2013-3-23,18.0,7.0,3.0,18.0,7.0,3.0,100,100,100,0.00,40.00,14,7,23,0.00
2013-3-24,22.0,10.0,3.0,22.0,9.8,3.0,100,99,76,0.00,40.00,10,4,19,0.00
2013-3-25,30.0,18.6,8.0,29.0,9.8,-53.0,100,79,3,0.00,40.00,11,7,17,0.00
2013-3-26,36.0,28.4,23.0,31.0,26.4,19.0,100,93,49,0.00,40.00,23,12,37,0.00
2013-3-27,42.0,33.3,27.0,34.0,26.0,19.0,100,77,48,0.00,40.00,11,6,21,0.00
2013-3-28,41.0,36.1,32.0,37.0,27.0,13.0,100,71,40,0.00,40.00,20,9,29,0.00
2013-3-29,45.0,35.7,30.0,40.0,34.0,30.0,100,94,61,0.00,40.00,13,8,27,0.00
2013-3-30,44.0,37.8,33.0,39.0,31.1,-99.9,100,84,44,0.00,40.00,12,7,22,0.00
2013-3-31,46.0,38.1,31.0,35.0,16.8,-30.0,100,52,4,0.00,40.00,11,6,20,0.00